sensor_id;sensor_type;location;lat;lon;timestamp;P1;durP1;ratioP1;P2;durP2;ratioP2
52031;SDS011;38044;45.148;39.604;2023-07-29T00:00:56;3.33;;;1.40;;
52031;SDS011;38044;45.148;39.604;2023-07-29T00:03:26;3.60;;;1.23;;
52031;SDS011;38044;45.148;39.604;2023-07-29T00:05:52;4.28;;;1.42;;
52031;SDS011;38044;45.148;39.604;2023-07-29T00:08:18;3.70;;;1.52;;
52031;SDS011;38044;45.148;39.604;2023-07-29T00:10:45;4.95;;;1.80;;
52031;SDS011;38044;45.148;39.604;2023-07-29T00:13:11;7.22;;;2.10;;
52031;SDS011;38044;45.148;39.604;2023-07-29T00:15:37;7.72;;;1.85;;
52031;SDS011;38044;45.148;39.604;2023-07-29T00:18:03;7.95;;;3.38;;
52031;SDS011;38044;45.148;39.604;2023-07-29T00:20:29;5.53;;;2.47;;
52031;SDS011;38044;45.148;39.604;2023-07-29T00:22:54;10.98;;;3.60;;
52031;SDS011;38044;45.148;39.604;2023-07-29T00:25:22;11.07;;;3.42;;
52031;SDS011;38044;45.148;39.604;2023-07-29T00:27:47;11.20;;;3.17;;
52031;SDS011;38044;45.148;39.604;2023-07-29T00:30:13;12.20;;;3.70;;
52031;SDS011;38044;45.148;39.604;2023-07-29T00:32:39;8.25;;;2.88;;
52031;SDS011;38044;45.148;39.604;2023-07-29T00:35:05;7.00;;;2.60;;
52031;SDS011;38044;45.148;39.604;2023-07-29T00:37:32;18.50;;;5.88;;
52031;SDS011;38044;45.148;39.604;2023-07-29T00:39:57;11.02;;;3.13;;
52031;SDS011;38044;45.148;39.604;2023-07-29T00:42:24;7.22;;;2.13;;
52031;SDS011;38044;45.148;39.604;2023-07-29T00:44:50;7.88;;;2.90;;
52031;SDS011;38044;45.148;39.604;2023-07-29T00:47:16;9.57;;;3.83;;
52031;SDS011;38044;45.148;39.604;2023-07-29T00:49:45;4.40;;;1.60;;
52031;SDS011;38044;45.148;39.604;2023-07-29T00:52:11;8.40;;;3.33;;
52031;SDS011;38044;45.148;39.604;2023-07-29T00:54:38;6.63;;;1.92;;
52031;SDS011;38044;45.148;39.604;2023-07-29T00:57:06;6.00;;;1.70;;
52031;SDS011;38044;45.148;39.604;2023-07-29T00:59:34;4.68;;;1.75;;
52031;SDS011;38044;45.148;39.604;2023-07-29T01:02:01;4.33;;;1.90;;
52031;SDS011;38044;45.148;39.604;2023-07-29T01:04:27;3.25;;;1.50;;
52031;SDS011;38044;45.148;39.604;2023-07-29T01:06:58;5.60;;;2.28;;
52031;SDS011;38044;45.148;39.604;2023-07-29T01:09:44;3.67;;;1.63;;
52031;SDS011;38044;45.148;39.604;2023-07-29T01:17:33;3.65;;;1.50;;
52031;SDS011;38044;45.148;39.604;2023-07-29T01:20:09;4.80;;;1.67;;
52031;SDS011;38044;45.148;39.604;2023-07-29T01:22:40;2.42;;;1.38;;
52031;SDS011;38044;45.148;39.604;2023-07-29T01:25:07;4.47;;;1.90;;
52031;SDS011;38044;45.148;39.604;2023-07-29T01:27:33;4.65;;;1.83;;
52031;SDS011;38044;45.148;39.604;2023-07-29T01:29:59;4.13;;;1.50;;
52031;SDS011;38044;45.148;39.604;2023-07-29T01:32:29;6.38;;;1.88;;
52031;SDS011;38044;45.148;39.604;2023-07-29T01:38:05;4.88;;;1.90;;
52031;SDS011;38044;45.148;39.604;2023-07-29T01:40:34;2.92;;;2.10;;
52031;SDS011;38044;45.148;39.604;2023-07-29T01:43:01;3.78;;;2.00;;
52031;SDS011;38044;45.148;39.604;2023-07-29T01:45:27;3.92;;;1.50;;
52031;SDS011;38044;45.148;39.604;2023-07-29T01:47:56;4.85;;;1.83;;
52031;SDS011;38044;45.148;39.604;2023-07-29T01:50:22;4.85;;;1.90;;
52031;SDS011;38044;45.148;39.604;2023-07-29T01:52:48;5.93;;;2.08;;
52031;SDS011;38044;45.148;39.604;2023-07-29T01:55:14;8.10;;;3.00;;
52031;SDS011;38044;45.148;39.604;2023-07-29T01:57:40;4.68;;;1.80;;
52031;SDS011;38044;45.148;39.604;2023-07-29T02:00:06;5.63;;;2.15;;
52031;SDS011;38044;45.148;39.604;2023-07-29T02:02:33;6.10;;;1.90;;
52031;SDS011;38044;45.148;39.604;2023-07-29T02:04:59;4.85;;;1.80;;
52031;SDS011;38044;45.148;39.604;2023-07-29T02:07:24;5.00;;;2.00;;
52031;SDS011;38044;45.148;39.604;2023-07-29T02:09:51;4.85;;;2.00;;
52031;SDS011;38044;45.148;39.604;2023-07-29T02:12:18;3.63;;;2.42;;
52031;SDS011;38044;45.148;39.604;2023-07-29T02:14:45;8.18;;;2.45;;
52031;SDS011;38044;45.148;39.604;2023-07-29T02:17:10;6.83;;;2.23;;
52031;SDS011;38044;45.148;39.604;2023-07-29T02:19:36;11.30;;;3.88;;
52031;SDS011;38044;45.148;39.604;2023-07-29T02:22:02;11.45;;;4.43;;
52031;SDS011;38044;45.148;39.604;2023-07-29T02:24:28;13.05;;;4.25;;
52031;SDS011;38044;45.148;39.604;2023-07-29T02:26:54;5.75;;;2.20;;
52031;SDS011;38044;45.148;39.604;2023-07-29T02:29:20;3.03;;;1.70;;
52031;SDS011;38044;45.148;39.604;2023-07-29T02:31:47;4.87;;;1.90;;
52031;SDS011;38044;45.148;39.604;2023-07-29T02:34:12;6.30;;;2.50;;
52031;SDS011;38044;45.148;39.604;2023-07-29T02:36:39;14.07;;;4.45;;
52031;SDS011;38044;45.148;39.604;2023-07-29T02:39:04;9.18;;;3.90;;
52031;SDS011;38044;45.148;39.604;2023-07-29T02:41:31;4.00;;;2.33;;
52031;SDS011;38044;45.148;39.604;2023-07-29T02:43:57;3.78;;;1.95;;
52031;SDS011;38044;45.148;39.604;2023-07-29T02:46:22;4.70;;;2.20;;
52031;SDS011;38044;45.148;39.604;2023-07-29T02:48:49;3.22;;;1.85;;
52031;SDS011;38044;45.148;39.604;2023-07-29T02:51:16;5.03;;;1.93;;
52031;SDS011;38044;45.148;39.604;2023-07-29T02:53:42;5.45;;;1.77;;
52031;SDS011;38044;45.148;39.604;2023-07-29T02:56:08;4.25;;;2.00;;
52031;SDS011;38044;45.148;39.604;2023-07-29T02:58:35;5.70;;;1.93;;
52031;SDS011;38044;45.148;39.604;2023-07-29T03:01:02;4.10;;;1.67;;
52031;SDS011;38044;45.148;39.604;2023-07-29T03:03:29;4.00;;;2.13;;
52031;SDS011;38044;45.148;39.604;2023-07-29T03:06:02;3.42;;;1.90;;
52031;SDS011;38044;45.148;39.604;2023-07-29T03:08:30;4.47;;;1.80;;
52031;SDS011;38044;45.148;39.604;2023-07-29T03:10:56;4.10;;;1.75;;
52031;SDS011;38044;45.148;39.604;2023-07-29T03:13:23;5.30;;;2.33;;
52031;SDS011;38044;45.148;39.604;2023-07-29T03:15:48;4.10;;;2.10;;
52031;SDS011;38044;45.148;39.604;2023-07-29T03:18:15;8.27;;;2.83;;
52031;SDS011;38044;45.148;39.604;2023-07-29T03:20:41;6.55;;;2.22;;
52031;SDS011;38044;45.148;39.604;2023-07-29T03:23:07;4.13;;;1.55;;
52031;SDS011;38044;45.148;39.604;2023-07-29T03:25:33;4.25;;;1.73;;
52031;SDS011;38044;45.148;39.604;2023-07-29T03:27:59;5.27;;;2.00;;
52031;SDS011;38044;45.148;39.604;2023-07-29T03:30:25;6.35;;;2.75;;
52031;SDS011;38044;45.148;39.604;2023-07-29T03:32:52;10.13;;;4.32;;
52031;SDS011;38044;45.148;39.604;2023-07-29T03:35:18;5.05;;;2.30;;
52031;SDS011;38044;45.148;39.604;2023-07-29T03:37:44;10.82;;;4.20;;
52031;SDS011;38044;45.148;39.604;2023-07-29T03:40:10;5.15;;;2.30;;
52031;SDS011;38044;45.148;39.604;2023-07-29T03:42:36;5.30;;;1.93;;
52031;SDS011;38044;45.148;39.604;2023-07-29T03:45:02;4.28;;;2.00;;
52031;SDS011;38044;45.148;39.604;2023-07-29T03:47:28;4.05;;;1.70;;
52031;SDS011;38044;45.148;39.604;2023-07-29T03:49:54;3.47;;;1.55;;
52031;SDS011;38044;45.148;39.604;2023-07-29T03:52:19;2.30;;;1.47;;
52031;SDS011;38044;45.148;39.604;2023-07-29T03:54:45;3.53;;;1.67;;
52031;SDS011;38044;45.148;39.604;2023-07-29T03:57:11;4.43;;;2.10;;
52031;SDS011;38044;45.148;39.604;2023-07-29T03:59:37;7.43;;;5.32;;
52031;SDS011;38044;45.148;39.604;2023-07-29T04:02:03;3.85;;;1.90;;
52031;SDS011;38044;45.148;39.604;2023-07-29T04:04:29;3.33;;;1.60;;
52031;SDS011;38044;45.148;39.604;2023-07-29T04:06:55;4.10;;;1.80;;
52031;SDS011;38044;45.148;39.604;2023-07-29T04:09:21;4.32;;;1.80;;
52031;SDS011;38044;45.148;39.604;2023-07-29T04:11:49;3.13;;;1.43;;
52031;SDS011;38044;45.148;39.604;2023-07-29T04:14:14;6.82;;;2.03;;
52031;SDS011;38044;45.148;39.604;2023-07-29T04:16:40;6.00;;;1.50;;
52031;SDS011;38044;45.148;39.604;2023-07-29T04:19:06;3.33;;;1.75;;
52031;SDS011;38044;45.148;39.604;2023-07-29T04:21:35;5.50;;;1.63;;
52031;SDS011;38044;45.148;39.604;2023-07-29T04:24:02;5.53;;;1.88;;
52031;SDS011;38044;45.148;39.604;2023-07-29T04:26:29;5.32;;;2.03;;
52031;SDS011;38044;45.148;39.604;2023-07-29T04:28:54;3.53;;;1.35;;
52031;SDS011;38044;45.148;39.604;2023-07-29T04:31:20;4.40;;;1.85;;
52031;SDS011;38044;45.148;39.604;2023-07-29T07:13:27;3.28;;;1.50;;
52031;SDS011;38044;45.148;39.604;2023-07-29T08:49:17;3.30;;;1.10;;
52031;SDS011;38044;45.148;39.604;2023-07-29T08:51:48;3.10;;;1.20;;
52031;SDS011;38044;45.148;39.604;2023-07-29T08:54:16;1.80;;;1.00;;
52031;SDS011;38044;45.148;39.604;2023-07-29T08:56:42;5.22;;;1.23;;
52031;SDS011;38044;45.148;39.604;2023-07-29T08:59:09;5.22;;;1.27;;
52031;SDS011;38044;45.148;39.604;2023-07-29T09:04:03;3.43;;;1.07;;
52031;SDS011;38044;45.148;39.604;2023-07-29T09:16:54;5.70;;;1.02;;
52031;SDS011;38044;45.148;39.604;2023-07-29T09:19:20;6.25;;;1.20;;
52031;SDS011;38044;45.148;39.604;2023-07-29T09:21:46;3.40;;;1.45;;
52031;SDS011;38044;45.148;39.604;2023-07-29T09:24:12;7.38;;;2.25;;
52031;SDS011;38044;45.148;39.604;2023-07-29T09:26:48;2.70;;;1.20;;
52031;SDS011;38044;45.148;39.604;2023-07-29T09:29:14;6.47;;;1.15;;
52031;SDS011;38044;45.148;39.604;2023-07-29T09:34:05;3.23;;;1.20;;
52031;SDS011;38044;45.148;39.604;2023-07-29T09:36:32;2.72;;;1.10;;
52031;SDS011;38044;45.148;39.604;2023-07-29T09:38:59;5.67;;;1.20;;
52031;SDS011;38044;45.148;39.604;2023-07-29T09:41:25;4.05;;;0.95;;
52031;SDS011;38044;45.148;39.604;2023-07-29T09:44:02;1.70;;;1.00;;
52031;SDS011;38044;45.148;39.604;2023-07-29T09:46:33;4.37;;;0.90;;
52031;SDS011;38044;45.148;39.604;2023-07-29T09:49:03;1.88;;;1.10;;
52031;SDS011;38044;45.148;39.604;2023-07-29T09:51:30;5.93;;;2.35;;
52031;SDS011;38044;45.148;39.604;2023-07-29T09:53:56;7.50;;;2.47;;
52031;SDS011;38044;45.148;39.604;2023-07-29T09:56:26;7.25;;;3.25;;
52031;SDS011;38044;45.148;39.604;2023-07-29T09:58:53;7.40;;;2.03;;
52031;SDS011;38044;45.148;39.604;2023-07-29T10:01:21;8.93;;;2.50;;
52031;SDS011;38044;45.148;39.604;2023-07-29T10:03:47;6.07;;;1.98;;
52031;SDS011;38044;45.148;39.604;2023-07-29T10:06:14;2.72;;;1.60;;
52031;SDS011;38044;45.148;39.604;2023-07-29T10:08:42;3.03;;;1.30;;
52031;SDS011;38044;45.148;39.604;2023-07-29T10:11:33;2.28;;;1.10;;
52031;SDS011;38044;45.148;39.604;2023-07-29T10:14:01;8.73;;;2.08;;
52031;SDS011;38044;45.148;39.604;2023-07-29T10:17:23;6.18;;;1.23;;
52031;SDS011;38044;45.148;39.604;2023-07-29T10:19:51;10.07;;;1.83;;
52031;SDS011;38044;45.148;39.604;2023-07-29T10:22:18;4.05;;;1.25;;
52031;SDS011;38044;45.148;39.604;2023-07-29T10:24:45;5.70;;;1.10;;
52031;SDS011;38044;45.148;39.604;2023-07-29T10:27:14;2.88;;;1.13;;
52031;SDS011;38044;45.148;39.604;2023-07-29T10:30:21;10.80;;;1.50;;
52031;SDS011;38044;45.148;39.604;2023-07-29T10:32:49;8.93;;;1.75;;
52031;SDS011;38044;45.148;39.604;2023-07-29T10:35:17;5.90;;;1.58;;
52031;SDS011;38044;45.148;39.604;2023-07-29T10:37:43;6.03;;;1.40;;
52031;SDS011;38044;45.148;39.604;2023-07-29T10:40:10;5.38;;;1.27;;
52031;SDS011;38044;45.148;39.604;2023-07-29T10:42:37;5.28;;;1.20;;
52031;SDS011;38044;45.148;39.604;2023-07-29T10:45:19;2.93;;;1.27;;
52031;SDS011;38044;45.148;39.604;2023-07-29T10:47:46;3.33;;;1.27;;
52031;SDS011;38044;45.148;39.604;2023-07-29T10:50:19;2.10;;;1.10;;
52031;SDS011;38044;45.148;39.604;2023-07-29T10:52:52;4.03;;;1.85;;
52031;SDS011;38044;45.148;39.604;2023-07-29T10:55:25;3.80;;;1.30;;
52031;SDS011;38044;45.148;39.604;2023-07-29T10:58:07;2.70;;;1.17;;
52031;SDS011;38044;45.148;39.604;2023-07-29T11:00:36;3.60;;;1.63;;
52031;SDS011;38044;45.148;39.604;2023-07-29T11:03:07;4.63;;;1.80;;
52031;SDS011;38044;45.148;39.604;2023-07-29T11:08:16;3.75;;;1.70;;
52031;SDS011;38044;45.148;39.604;2023-07-29T11:13:40;6.25;;;1.67;;
52031;SDS011;38044;45.148;39.604;2023-07-29T11:16:06;7.97;;;1.85;;
52031;SDS011;38044;45.148;39.604;2023-07-29T11:18:35;10.83;;;3.00;;
52031;SDS011;38044;45.148;39.604;2023-07-29T11:21:02;3.97;;;1.50;;
52031;SDS011;38044;45.148;39.604;2023-07-29T11:23:32;11.02;;;1.75;;
52031;SDS011;38044;45.148;39.604;2023-07-29T11:26:00;7.50;;;1.77;;
52031;SDS011;38044;45.148;39.604;2023-07-29T11:28:27;5.57;;;1.53;;
52031;SDS011;38044;45.148;39.604;2023-07-29T11:30:54;4.75;;;1.40;;
52031;SDS011;38044;45.148;39.604;2023-07-29T11:33:22;3.92;;;1.10;;
52031;SDS011;38044;45.148;39.604;2023-07-29T11:35:52;3.90;;;1.55;;
52031;SDS011;38044;45.148;39.604;2023-07-29T11:38:19;4.10;;;1.55;;
52031;SDS011;38044;45.148;39.604;2023-07-29T11:40:59;4.00;;;1.40;;
52031;SDS011;38044;45.148;39.604;2023-07-29T11:43:28;8.87;;;1.90;;
52031;SDS011;38044;45.148;39.604;2023-07-29T11:45:54;7.78;;;1.85;;
52031;SDS011;38044;45.148;39.604;2023-07-29T11:48:27;2.33;;;1.30;;
52031;SDS011;38044;45.148;39.604;2023-07-29T11:50:57;4.38;;;1.20;;
52031;SDS011;38044;45.148;39.604;2023-07-29T11:53:25;4.00;;;1.10;;
52031;SDS011;38044;45.148;39.604;2023-07-29T11:55:59;4.60;;;1.30;;
52031;SDS011;38044;45.148;39.604;2023-07-29T11:58:32;4.10;;;1.40;;
52031;SDS011;38044;45.148;39.604;2023-07-29T12:00:59;3.70;;;1.27;;
52031;SDS011;38044;45.148;39.604;2023-07-29T12:03:28;5.38;;;1.20;;
52031;SDS011;38044;45.148;39.604;2023-07-29T12:06:01;2.70;;;1.10;;
52031;SDS011;38044;45.148;39.604;2023-07-29T12:08:37;2.75;;;1.20;;
52031;SDS011;38044;45.148;39.604;2023-07-29T12:11:04;4.80;;;1.30;;
52031;SDS011;38044;45.148;39.604;2023-07-29T12:13:31;4.45;;;1.40;;
52031;SDS011;38044;45.148;39.604;2023-07-29T12:16:01;7.05;;;1.52;;
52031;SDS011;38044;45.148;39.604;2023-07-29T12:18:31;7.30;;;1.60;;
52031;SDS011;38044;45.148;39.604;2023-07-29T12:20:58;7.40;;;1.30;;
52031;SDS011;38044;45.148;39.604;2023-07-29T12:23:27;4.68;;;1.50;;
52031;SDS011;38044;45.148;39.604;2023-07-29T12:25:58;3.95;;;1.63;;
52031;SDS011;38044;45.148;39.604;2023-07-29T12:28:25;8.57;;;1.80;;
52031;SDS011;38044;45.148;39.604;2023-07-29T12:30:55;8.10;;;1.45;;
52031;SDS011;38044;45.148;39.604;2023-07-29T12:33:32;3.88;;;1.30;;
52031;SDS011;38044;45.148;39.604;2023-07-29T12:36:01;10.90;;;2.22;;
52031;SDS011;38044;45.148;39.604;2023-07-29T12:38:31;2.80;;;1.40;;
52031;SDS011;38044;45.148;39.604;2023-07-29T12:40:58;5.55;;;1.50;;
52031;SDS011;38044;45.148;39.604;2023-07-29T12:43:25;2.88;;;1.33;;
52031;SDS011;38044;45.148;39.604;2023-07-29T12:45:52;5.05;;;1.50;;
52031;SDS011;38044;45.148;39.604;2023-07-29T12:48:18;6.63;;;1.73;;
52031;SDS011;38044;45.148;39.604;2023-07-29T12:50:46;4.50;;;1.30;;
52031;SDS011;38044;45.148;39.604;2023-07-29T12:53:17;4.37;;;1.47;;
52031;SDS011;38044;45.148;39.604;2023-07-29T12:55:45;4.10;;;1.20;;
52031;SDS011;38044;45.148;39.604;2023-07-29T12:58:12;3.88;;;1.20;;
52031;SDS011;38044;45.148;39.604;2023-07-29T13:00:38;3.35;;;1.20;;
52031;SDS011;38044;45.148;39.604;2023-07-29T13:03:04;3.65;;;1.20;;
52031;SDS011;38044;45.148;39.604;2023-07-29T13:05:31;3.53;;;1.13;;
52031;SDS011;38044;45.148;39.604;2023-07-29T13:07:58;7.85;;;1.55;;
52031;SDS011;38044;45.148;39.604;2023-07-29T13:10:28;4.28;;;1.30;;
52031;SDS011;38044;45.148;39.604;2023-07-29T13:12:59;3.65;;;1.30;;
52031;SDS011;38044;45.148;39.604;2023-07-29T13:15:28;3.57;;;1.30;;
52031;SDS011;38044;45.148;39.604;2023-07-29T13:17:56;5.03;;;1.45;;
52031;SDS011;38044;45.148;39.604;2023-07-29T13:20:28;6.88;;;1.88;;
52031;SDS011;38044;45.148;39.604;2023-07-29T13:22:59;2.92;;;1.10;;
52031;SDS011;38044;45.148;39.604;2023-07-29T13:25:31;6.60;;;1.52;;
52031;SDS011;38044;45.148;39.604;2023-07-29T13:27:58;3.72;;;1.40;;
52031;SDS011;38044;45.148;39.604;2023-07-29T13:30:24;4.93;;;1.58;;
52031;SDS011;38044;45.148;39.604;2023-07-29T13:32:54;5.85;;;1.65;;
52031;SDS011;38044;45.148;39.604;2023-07-29T13:35:22;4.93;;;1.45;;
52031;SDS011;38044;45.148;39.604;2023-07-29T13:37:49;3.63;;;1.30;;
52031;SDS011;38044;45.148;39.604;2023-07-29T13:40:15;3.38;;;1.50;;
52031;SDS011;38044;45.148;39.604;2023-07-29T13:42:41;2.40;;;1.50;;
52031;SDS011;38044;45.148;39.604;2023-07-29T13:45:07;9.32;;;4.60;;
52031;SDS011;38044;45.148;39.604;2023-07-29T13:47:34;16.52;;;8.20;;
52031;SDS011;38044;45.148;39.604;2023-07-29T13:50:00;14.40;;;7.07;;
52031;SDS011;38044;45.148;39.604;2023-07-29T13:52:26;12.02;;;5.38;;
52031;SDS011;38044;45.148;39.604;2023-07-29T13:54:52;7.57;;;3.10;;
52031;SDS011;38044;45.148;39.604;2023-07-29T13:57:18;5.82;;;2.83;;
52031;SDS011;38044;45.148;39.604;2023-07-29T13:59:44;5.60;;;1.90;;
52031;SDS011;38044;45.148;39.604;2023-07-29T14:02:10;5.00;;;1.50;;
52031;SDS011;38044;45.148;39.604;2023-07-29T14:04:36;4.95;;;1.90;;
52031;SDS011;38044;45.148;39.604;2023-07-29T14:07:02;6.38;;;1.70;;
52031;SDS011;38044;45.148;39.604;2023-07-29T14:09:29;4.15;;;1.60;;
52031;SDS011;38044;45.148;39.604;2023-07-29T14:11:55;4.60;;;1.70;;
52031;SDS011;38044;45.148;39.604;2023-07-29T14:14:26;4.70;;;1.92;;
52031;SDS011;38044;45.148;39.604;2023-07-29T14:17:03;4.93;;;2.17;;
52031;SDS011;38044;45.148;39.604;2023-07-29T14:19:34;6.93;;;2.10;;
52031;SDS011;38044;45.148;39.604;2023-07-29T14:22:07;8.02;;;2.03;;
52031;SDS011;38044;45.148;39.604;2023-07-29T14:24:45;6.82;;;2.13;;
52031;SDS011;38044;45.148;39.604;2023-07-29T14:27:14;5.22;;;1.88;;
52031;SDS011;38044;45.148;39.604;2023-07-29T14:29:42;7.38;;;1.98;;
52031;SDS011;38044;45.148;39.604;2023-07-29T14:32:09;16.50;;;3.60;;
52031;SDS011;38044;45.148;39.604;2023-07-29T14:34:36;7.43;;;3.00;;
52031;SDS011;38044;45.148;39.604;2023-07-29T14:37:02;11.45;;;5.10;;
52031;SDS011;38044;45.148;39.604;2023-07-29T14:39:28;6.53;;;3.30;;
52031;SDS011;38044;45.148;39.604;2023-07-29T14:41:55;8.77;;;4.83;;
52031;SDS011;38044;45.148;39.604;2023-07-29T14:44:22;10.50;;;6.38;;
52031;SDS011;38044;45.148;39.604;2023-07-29T14:46:48;12.00;;;6.07;;
52031;SDS011;38044;45.148;39.604;2023-07-29T14:49:18;9.70;;;4.80;;
52031;SDS011;38044;45.148;39.604;2023-07-29T14:51:52;8.35;;;4.25;;
52031;SDS011;38044;45.148;39.604;2023-07-29T14:54:18;9.23;;;3.03;;
52031;SDS011;38044;45.148;39.604;2023-07-29T14:56:45;6.13;;;2.90;;
52031;SDS011;38044;45.148;39.604;2023-07-29T14:59:12;5.35;;;2.72;;
52031;SDS011;38044;45.148;39.604;2023-07-29T15:01:39;6.20;;;2.43;;
52031;SDS011;38044;45.148;39.604;2023-07-29T15:04:08;7.20;;;3.30;;
52031;SDS011;38044;45.148;39.604;2023-07-29T15:06:40;7.68;;;2.67;;
52031;SDS011;38044;45.148;39.604;2023-07-29T15:09:08;4.10;;;2.50;;
52031;SDS011;38044;45.148;39.604;2023-07-29T15:11:42;4.20;;;2.70;;
52031;SDS011;38044;45.148;39.604;2023-07-29T15:14:13;4.15;;;1.50;;
52031;SDS011;38044;45.148;39.604;2023-07-29T15:16:47;3.95;;;2.20;;
52031;SDS011;38044;45.148;39.604;2023-07-29T15:19:19;3.33;;;1.50;;
52031;SDS011;38044;45.148;39.604;2023-07-29T15:21:51;5.57;;;1.80;;
52031;SDS011;38044;45.148;39.604;2023-07-29T15:24:25;6.07;;;1.70;;
52031;SDS011;38044;45.148;39.604;2023-07-29T15:26:56;6.50;;;1.80;;
52031;SDS011;38044;45.148;39.604;2023-07-29T15:29:28;4.75;;;1.88;;
52031;SDS011;38044;45.148;39.604;2023-07-29T15:31:54;4.28;;;1.63;;
52031;SDS011;38044;45.148;39.604;2023-07-29T15:34:21;4.07;;;1.83;;
52031;SDS011;38044;45.148;39.604;2023-07-29T15:36:51;3.95;;;1.55;;
52031;SDS011;38044;45.148;39.604;2023-07-29T15:39:18;5.28;;;1.58;;
52031;SDS011;38044;45.148;39.604;2023-07-29T15:41:52;4.60;;;1.80;;
52031;SDS011;38044;45.148;39.604;2023-07-29T15:44:29;6.53;;;2.10;;
52031;SDS011;38044;45.148;39.604;2023-07-29T15:46:56;4.60;;;1.83;;
52031;SDS011;38044;45.148;39.604;2023-07-29T15:49:22;8.65;;;1.80;;
52031;SDS011;38044;45.148;39.604;2023-07-29T15:51:50;7.18;;;1.40;;
52031;SDS011;38044;45.148;39.604;2023-07-29T15:54:23;4.03;;;1.70;;
52031;SDS011;38044;45.148;39.604;2023-07-29T15:56:50;5.00;;;1.40;;
52031;SDS011;38044;45.148;39.604;2023-07-29T15:59:18;2.85;;;1.60;;
52031;SDS011;38044;45.148;39.604;2023-07-29T16:01:45;5.57;;;1.80;;
52031;SDS011;38044;45.148;39.604;2023-07-29T16:04:16;5.85;;;1.77;;
52031;SDS011;38044;45.148;39.604;2023-07-29T16:06:44;6.65;;;1.92;;
52031;SDS011;38044;45.148;39.604;2023-07-29T16:09:11;6.87;;;1.63;;
52031;SDS011;38044;45.148;39.604;2023-07-29T16:11:40;7.70;;;1.73;;
52031;SDS011;38044;45.148;39.604;2023-07-29T16:14:08;3.87;;;1.60;;
52031;SDS011;38044;45.148;39.604;2023-07-29T16:16:36;6.00;;;2.08;;
52031;SDS011;38044;45.148;39.604;2023-07-29T16:19:04;5.15;;;1.77;;
52031;SDS011;38044;45.148;39.604;2023-07-29T16:21:32;4.57;;;2.13;;
52031;SDS011;38044;45.148;39.604;2023-07-29T16:23:58;4.32;;;1.80;;
52031;SDS011;38044;45.148;39.604;2023-07-29T16:26:24;4.43;;;1.70;;
52031;SDS011;38044;45.148;39.604;2023-07-29T16:28:50;7.72;;;2.72;;
52031;SDS011;38044;45.148;39.604;2023-07-29T16:31:17;11.50;;;4.05;;
52031;SDS011;38044;45.148;39.604;2023-07-29T16:33:45;4.72;;;2.28;;
52031;SDS011;38044;45.148;39.604;2023-07-29T16:36:11;6.88;;;3.58;;
52031;SDS011;38044;45.148;39.604;2023-07-29T16:38:43;25.88;;;15.13;;
52031;SDS011;38044;45.148;39.604;2023-07-29T16:41:10;18.98;;;10.48;;
52031;SDS011;38044;45.148;39.604;2023-07-29T16:43:40;19.67;;;11.00;;
52031;SDS011;38044;45.148;39.604;2023-07-29T16:46:08;25.05;;;12.88;;
52031;SDS011;38044;45.148;39.604;2023-07-29T16:48:34;19.83;;;9.00;;
52031;SDS011;38044;45.148;39.604;2023-07-29T16:51:00;23.25;;;9.82;;
52031;SDS011;38044;45.148;39.604;2023-07-29T16:53:26;51.35;;;21.95;;
52031;SDS011;38044;45.148;39.604;2023-07-29T16:55:52;42.03;;;21.43;;
52031;SDS011;38044;45.148;39.604;2023-07-29T16:58:18;41.17;;;20.25;;
52031;SDS011;38044;45.148;39.604;2023-07-29T17:00:45;123.43;;;57.42;;
52031;SDS011;38044;45.148;39.604;2023-07-29T17:03:11;71.47;;;36.70;;
52031;SDS011;38044;45.148;39.604;2023-07-29T17:05:37;97.15;;;49.15;;
52031;SDS011;38044;45.148;39.604;2023-07-29T17:08:03;32.72;;;14.82;;
52031;SDS011;38044;45.148;39.604;2023-07-29T17:10:29;21.70;;;8.20;;
52031;SDS011;38044;45.148;39.604;2023-07-29T17:12:55;18.00;;;6.03;;
52031;SDS011;38044;45.148;39.604;2023-07-29T17:15:21;22.58;;;7.45;;
52031;SDS011;38044;45.148;39.604;2023-07-29T17:17:47;22.52;;;7.50;;
52031;SDS011;38044;45.148;39.604;2023-07-29T17:20:14;57.10;;;27.58;;
52031;SDS011;38044;45.148;39.604;2023-07-29T17:22:40;78.13;;;40.35;;
52031;SDS011;38044;45.148;39.604;2023-07-29T17:25:06;98.70;;;50.40;;
52031;SDS011;38044;45.148;39.604;2023-07-29T17:27:33;55.70;;;27.95;;
52031;SDS011;38044;45.148;39.604;2023-07-29T17:29:59;50.10;;;24.63;;
52031;SDS011;38044;45.148;39.604;2023-07-29T17:32:25;41.13;;;19.95;;
52031;SDS011;38044;45.148;39.604;2023-07-29T17:34:51;27.55;;;12.43;;
52031;SDS011;38044;45.148;39.604;2023-07-29T17:37:17;28.05;;;12.10;;
52031;SDS011;38044;45.148;39.604;2023-07-29T17:39:43;27.98;;;10.52;;
52031;SDS011;38044;45.148;39.604;2023-07-29T17:42:09;27.92;;;14.55;;
52031;SDS011;38044;45.148;39.604;2023-07-29T17:44:35;43.65;;;23.05;;
52031;SDS011;38044;45.148;39.604;2023-07-29T17:47:01;58.33;;;29.25;;
52031;SDS011;38044;45.148;39.604;2023-07-29T17:49:27;42.33;;;20.05;;
52031;SDS011;38044;45.148;39.604;2023-07-29T17:51:53;31.05;;;14.07;;
52031;SDS011;38044;45.148;39.604;2023-07-29T17:54:19;18.40;;;4.88;;
52031;SDS011;38044;45.148;39.604;2023-07-29T17:56:45;16.73;;;5.38;;
52031;SDS011;38044;45.148;39.604;2023-07-29T17:59:11;16.60;;;4.97;;
52031;SDS011;38044;45.148;39.604;2023-07-29T18:01:37;10.40;;;4.18;;
52031;SDS011;38044;45.148;39.604;2023-07-29T18:04:03;10.18;;;4.28;;
52031;SDS011;38044;45.148;39.604;2023-07-29T18:06:29;8.65;;;3.75;;
52031;SDS011;38044;45.148;39.604;2023-07-29T18:08:55;10.03;;;3.57;;
52031;SDS011;38044;45.148;39.604;2023-07-29T18:11:21;18.88;;;4.65;;
52031;SDS011;38044;45.148;39.604;2023-07-29T18:13:51;19.05;;;6.43;;
52031;SDS011;38044;45.148;39.604;2023-07-29T18:16:17;15.73;;;5.43;;
52031;SDS011;38044;45.148;39.604;2023-07-29T18:18:46;13.88;;;4.53;;
52031;SDS011;38044;45.148;39.604;2023-07-29T18:21:15;12.20;;;4.25;;
52031;SDS011;38044;45.148;39.604;2023-07-29T18:23:41;10.10;;;3.80;;
52031;SDS011;38044;45.148;39.604;2023-07-29T18:26:07;8.73;;;3.17;;
52031;SDS011;38044;45.148;39.604;2023-07-29T18:28:36;6.88;;;3.05;;
52031;SDS011;38044;45.148;39.604;2023-07-29T18:31:03;7.88;;;3.42;;
52031;SDS011;38044;45.148;39.604;2023-07-29T18:33:29;11.20;;;4.85;;
52031;SDS011;38044;45.148;39.604;2023-07-29T18:35:55;14.10;;;5.25;;
52031;SDS011;38044;45.148;39.604;2023-07-29T18:38:22;16.38;;;5.97;;
52031;SDS011;38044;45.148;39.604;2023-07-29T18:40:48;18.27;;;7.30;;
52031;SDS011;38044;45.148;39.604;2023-07-29T18:43:14;20.02;;;8.32;;
52031;SDS011;38044;45.148;39.604;2023-07-29T18:45:40;31.48;;;9.88;;
52031;SDS011;38044;45.148;39.604;2023-07-29T18:48:06;24.30;;;8.38;;
52031;SDS011;38044;45.148;39.604;2023-07-29T18:50:32;15.73;;;5.70;;
52031;SDS011;38044;45.148;39.604;2023-07-29T18:52:58;10.30;;;5.30;;
52031;SDS011;38044;45.148;39.604;2023-07-29T18:55:25;9.88;;;4.63;;
52031;SDS011;38044;45.148;39.604;2023-07-29T18:57:52;9.68;;;3.90;;
52031;SDS011;38044;45.148;39.604;2023-07-29T19:00:18;10.50;;;4.00;;
52031;SDS011;38044;45.148;39.604;2023-07-29T19:02:44;10.38;;;3.90;;
52031;SDS011;38044;45.148;39.604;2023-07-29T19:05:11;23.88;;;5.47;;
52031;SDS011;38044;45.148;39.604;2023-07-29T19:07:37;18.08;;;4.72;;
52031;SDS011;38044;45.148;39.604;2023-07-29T19:10:04;22.67;;;5.50;;
52031;SDS011;38044;45.148;39.604;2023-07-29T19:12:30;25.92;;;6.10;;
52031;SDS011;38044;45.148;39.604;2023-07-29T19:14:56;20.88;;;5.30;;
52031;SDS011;38044;45.148;39.604;2023-07-29T19:17:22;20.50;;;5.53;;